createdAt,value
2017-08-15T00:02:04.608Z,18.40
2017-08-15T00:04:33.679Z,18.40
2017-08-15T00:07:01.936Z,18.30
2017-08-15T00:09:30.181Z,18.30
2017-08-15T00:11:58.426Z,18.30
2017-08-15T00:14:26.655Z,18.40
2017-08-15T00:16:54.983Z,18.40
2017-08-15T00:19:23.244Z,18.40
2017-08-15T00:21:51.613Z,18.40
2017-08-15T00:24:19.886Z,18.40
2017-08-15T00:26:49.088Z,18.30
2017-08-15T00:29:17.344Z,18.30
2017-08-15T00:31:45.601Z,18.10
2017-08-15T00:34:13.886Z,18.10
2017-08-15T00:36:42.878Z,17.90
2017-08-15T00:39:11.873Z,17.80
2017-08-15T00:41:40.902Z,17.80
2017-08-15T00:44:09.166Z,17.70
2017-08-15T00:46:37.872Z,17.70
2017-08-15T00:49:06.121Z,17.60
2017-08-15T00:51:34.427Z,17.60
2017-08-15T00:54:02.684Z,17.60
2017-08-15T00:56:30.945Z,17.60
2017-08-15T00:58:59.945Z,17.50
2017-08-15T01:01:28.201Z,17.50
2017-08-15T01:03:56.521Z,17.50
2017-08-15T01:06:24.742Z,17.50
2017-08-15T01:08:53.754Z,17.40
2017-08-15T01:11:22.762Z,17.40
2017-08-15T01:13:51.019Z,17.40
2017-08-15T01:16:19.248Z,17.40
2017-08-15T01:18:47.507Z,17.30
2017-08-15T01:21:15.751Z,17.30
2017-08-15T01:23:44.784Z,17.30
2017-08-15T01:26:13.035Z,17.30
2017-08-15T01:28:42.037Z,17.20
2017-08-15T01:31:10.335Z,17.20
2017-08-15T01:33:38.627Z,17.20
2017-08-15T01:36:06.854Z,17.10
2017-08-15T01:38:35.887Z,16.90
2017-08-15T01:41:04.172Z,16.90
2017-08-15T01:43:32.442Z,16.90
2017-08-15T01:46:00.689Z,16.90
2017-08-15T01:48:28.941Z,16.90
2017-08-15T01:50:57.210Z,16.80
2017-08-15T01:53:25.429Z,16.80
2017-08-15T01:55:53.728Z,16.70
2017-08-15T01:58:21.965Z,16.70
2017-08-15T02:00:51.010Z,16.60
2017-08-15T02:03:19.275Z,16.50
2017-08-15T02:05:47.552Z,16.50
2017-08-15T02:08:15.790Z,16.50
2017-08-15T02:10:44.831Z,16.40
2017-08-15T02:13:13.084Z,16.40
2017-08-15T02:15:41.338Z,16.50
2017-08-15T02:18:09.609Z,16.40
2017-08-15T02:20:38.635Z,16.30
2017-08-15T02:23:06.886Z,16.30
2017-08-15T02:25:35.902Z,16.30
2017-08-15T02:28:04.187Z,16.30
2017-08-15T02:30:32.457Z,16.30
2017-08-15T02:33:00.703Z,16.30
2017-08-15T02:35:28.924Z,16.20
2017-08-15T02:37:57.161Z,16.20
2017-08-15T02:40:26.146Z,16.20
2017-08-15T02:42:55.174Z,16.20
2017-08-15T02:45:23.440Z,16.20
2017-08-15T02:47:52.436Z,16.10
2017-08-15T02:50:21.442Z,16.10
2017-08-15T02:52:49.713Z,16.10
2017-08-15T02:55:18.702Z,16.10
2017-08-15T02:57:47.694Z,16.00
2017-08-15T03:00:16.713Z,15.90
2017-08-15T03:02:44.954Z,15.90
2017-08-15T03:05:13.962Z,15.90
2017-08-15T03:07:42.191Z,15.90
2017-08-15T03:10:10.442Z,16.00
2017-08-15T03:12:38.735Z,16.00
2017-08-15T03:15:06.964Z,15.90
2017-08-15T03:17:36.003Z,15.90
2017-08-15T03:20:04.234Z,16.00
2017-08-15T03:22:32.498Z,15.90
2017-08-15T03:25:01.511Z,15.80
2017-08-15T03:27:29.799Z,15.80
2017-08-15T03:29:58.050Z,15.80
2017-08-15T03:32:27.086Z,15.70
2017-08-15T03:34:55.319Z,15.70
2017-08-15T03:37:24.319Z,15.80
2017-08-15T03:39:53.356Z,15.80
2017-08-15T03:42:21.588Z,15.80
2017-08-15T03:44:50.638Z,16.10
2017-08-15T03:47:18.880Z,15.90
2017-08-15T03:49:47.122Z,15.90
2017-08-15T03:52:15.357Z,15.80
2017-08-15T03:54:46.185Z,15.80
2017-08-15T03:57:15.198Z,15.80
2017-08-15T03:59:43.444Z,15.80
2017-08-15T04:02:11.675Z,15.80
2017-08-15T04:04:40.851Z,15.80
2017-08-15T04:07:09.111Z,15.80
2017-08-15T04:09:37.390Z,15.80
2017-08-15T04:12:05.629Z,15.70
2017-08-15T04:14:34.671Z,15.70
2017-08-15T04:17:02.917Z,15.70
2017-08-15T04:19:31.185Z,15.70
2017-08-15T04:22:00.215Z,15.60
2017-08-15T04:24:28.804Z,15.60
2017-08-15T04:26:57.052Z,15.70
2017-08-15T04:29:26.071Z,15.70
2017-08-15T04:31:54.655Z,15.70
2017-08-15T04:34:22.926Z,15.70
2017-08-15T04:36:51.162Z,15.80
2017-08-15T04:39:20.170Z,15.80
2017-08-15T04:41:49.006Z,15.80
2017-08-15T04:44:17.247Z,15.80
2017-08-15T04:46:45.518Z,15.90
2017-08-15T04:49:13.804Z,16.10
2017-08-15T04:51:42.785Z,16.10
2017-08-15T04:54:11.819Z,16.40
2017-08-15T04:56:40.034Z,16.40
2017-08-15T04:59:09.057Z,16.90
2017-08-15T05:01:37.314Z,16.90
2017-08-15T05:04:05.566Z,17.40
2017-08-15T05:06:33.821Z,17.80
2017-08-15T05:09:02.192Z,18.00
2017-08-15T05:11:30.447Z,18.20
2017-08-15T05:13:58.693Z,18.30
2017-08-15T05:16:27.743Z,18.30
2017-08-15T05:18:56.342Z,18.30
2017-08-15T05:21:24.585Z,18.40
2017-08-15T05:23:52.834Z,18.50
2017-08-15T05:26:21.095Z,18.50
2017-08-15T05:28:49.330Z,18.60
2017-08-15T05:31:17.566Z,18.60
2017-08-15T05:33:45.820Z,18.60
2017-08-15T05:36:14.082Z,18.60
2017-08-15T05:38:42.311Z,18.60
2017-08-15T05:41:10.587Z,18.80
2017-08-15T05:43:38.831Z,18.90
2017-08-15T05:46:07.181Z,19.00
2017-08-15T05:48:35.425Z,19.10
2017-08-15T05:51:04.429Z,19.20
2017-08-15T05:53:32.664Z,19.20
2017-08-15T05:56:00.927Z,19.20
2017-08-15T05:58:29.274Z,19.30
2017-08-15T06:00:57.524Z,19.40
2017-08-15T06:03:26.582Z,19.50
2017-08-15T06:05:54.822Z,19.50
2017-08-15T06:08:23.062Z,19.50
2017-08-15T06:10:51.331Z,19.50
2017-08-15T06:13:19.555Z,19.60
2017-08-15T06:15:47.857Z,19.70
2017-08-15T06:18:16.115Z,19.70
2017-08-15T06:20:44.358Z,19.80
2017-08-15T06:23:13.403Z,19.90
2017-08-15T06:25:41.653Z,19.90
2017-08-15T06:28:09.947Z,20.10
2017-08-15T06:30:38.203Z,20.10
2017-08-15T06:33:06.477Z,20.20
2017-08-15T06:35:34.726Z,20.20
2017-08-15T06:38:03.736Z,20.40
2017-08-15T06:40:31.989Z,20.40
2017-08-15T06:43:00.242Z,20.50
2017-08-15T06:45:28.517Z,20.60
2017-08-15T06:47:56.765Z,20.80
2017-08-15T06:50:25.014Z,20.90
2017-08-15T06:52:54.044Z,21.00
2017-08-15T06:55:22.283Z,21.00
2017-08-15T06:57:50.567Z,21.00
2017-08-15T07:00:19.567Z,21.20
2017-08-15T07:02:47.888Z,21.20
2017-08-15T07:05:16.128Z,21.40
2017-08-15T07:07:44.418Z,21.60
2017-08-15T07:10:12.679Z,21.60
2017-08-15T07:12:40.942Z,21.70
2017-08-15T07:15:09.995Z,21.90
2017-08-15T07:17:38.246Z,21.90
2017-08-15T07:20:06.483Z,22.00
2017-08-15T07:22:35.543Z,22.30
2017-08-15T07:25:03.818Z,22.30
2017-08-15T07:27:32.068Z,22.40
2017-08-15T07:30:00.319Z,22.50
2017-08-15T07:32:28.568Z,22.60
2017-08-15T07:34:56.845Z,22.60
2017-08-15T07:37:25.099Z,22.60
2017-08-15T07:39:53.333Z,22.80
2017-08-15T07:42:21.607Z,23.00
2017-08-15T07:44:49.844Z,23.20
2017-08-15T07:47:18.111Z,23.30
2017-08-15T07:49:46.391Z,23.40
2017-08-15T07:52:14.633Z,23.60
2017-08-15T07:54:42.914Z,23.70
2017-08-15T07:57:11.143Z,23.90
2017-08-15T07:59:40.177Z,24.20
2017-08-15T08:02:08.498Z,24.20
2017-08-15T08:04:36.747Z,24.50
2017-08-15T08:07:05.000Z,24.60
2017-08-15T08:09:33.347Z,24.70
2017-08-15T08:12:01.612Z,24.90
2017-08-15T08:14:29.867Z,25.00
2017-08-15T08:16:58.264Z,25.20
2017-08-15T08:19:26.513Z,25.40
2017-08-15T08:21:54.780Z,25.50
2017-08-15T08:24:23.004Z,25.50
2017-08-15T08:26:51.294Z,25.60
2017-08-15T08:29:19.530Z,25.50
2017-08-15T08:31:48.204Z,25.50
2017-08-15T08:34:17.219Z,25.70
2017-08-15T08:36:45.494Z,25.60
2017-08-15T08:39:13.735Z,25.80
2017-08-15T08:41:41.950Z,26.20
2017-08-15T08:44:10.235Z,26.40
2017-08-15T08:46:38.495Z,26.50
2017-08-15T08:49:06.733Z,26.70
2017-08-15T08:51:35.735Z,26.90
2017-08-15T08:54:04.755Z,26.90
2017-08-15T08:56:33.005Z,26.80
2017-08-15T08:59:01.273Z,27.00
2017-08-15T09:01:30.418Z,26.90
2017-08-15T09:03:58.686Z,26.90
2017-08-15T09:06:26.965Z,27.10
2017-08-15T09:08:55.269Z,27.30
2017-08-15T09:11:24.255Z,27.50
2017-08-15T09:13:52.487Z,27.50
2017-08-15T09:16:20.799Z,27.70
2017-08-15T09:18:49.046Z,27.70
2017-08-15T09:21:17.320Z,27.60
2017-08-15T09:23:45.907Z,27.60
2017-08-15T09:26:14.593Z,27.30
2017-08-15T09:28:48.539Z,27.10
2017-08-15T09:31:16.793Z,27.10
2017-08-15T09:33:45.034Z,26.80
2017-08-15T09:36:14.071Z,26.90
2017-08-15T09:38:42.324Z,26.80
2017-08-15T09:41:10.573Z,26.90
2017-08-15T09:43:38.864Z,27.00
2017-08-15T09:46:07.894Z,27.60
2017-08-15T09:48:36.114Z,27.60
2017-08-15T09:51:04.373Z,27.30
2017-08-15T09:53:32.612Z,27.30
2017-08-15T09:56:00.898Z,27.20
2017-08-15T09:58:34.892Z,27.20
2017-08-15T10:01:03.170Z,27.30
2017-08-15T10:03:31.419Z,27.30
2017-08-15T10:05:59.703Z,27.00
2017-08-15T10:08:28.745Z,26.80
2017-08-15T10:10:56.990Z,26.80
2017-08-15T10:13:25.309Z,26.50
2017-08-15T10:15:53.542Z,26.60
2017-08-15T10:18:21.832Z,26.60
2017-08-15T10:20:50.070Z,26.70
2017-08-15T10:23:18.298Z,26.40
2017-08-15T10:25:46.566Z,26.10
2017-08-15T10:28:14.835Z,26.10
2017-08-15T10:30:43.407Z,26.20
2017-08-15T10:33:12.451Z,26.30
2017-08-15T10:35:40.690Z,26.20
2017-08-15T10:38:08.982Z,26.00
2017-08-15T10:40:37.197Z,26.00
2017-08-15T10:43:05.492Z,26.10
2017-08-15T10:45:33.742Z,26.20
2017-08-15T10:48:02.005Z,26.30
2017-08-15T10:50:30.267Z,26.40
2017-08-15T10:52:58.504Z,26.60
2017-08-15T10:55:27.545Z,26.60
2017-08-15T10:57:55.849Z,26.60
2017-08-15T11:00:24.073Z,26.50
2017-08-15T11:02:52.326Z,26.50
2017-08-15T11:05:21.382Z,26.50
2017-08-15T11:07:49.636Z,26.50
2017-08-15T11:10:17.874Z,26.40
2017-08-15T11:12:46.144Z,26.10
2017-08-15T11:15:14.406Z,25.80
2017-08-15T11:17:42.626Z,25.50
2017-08-15T11:20:10.878Z,25.40
2017-08-15T11:22:39.182Z,25.20
2017-08-15T11:25:08.283Z,25.00
2017-08-15T11:27:36.559Z,24.90
2017-08-15T11:30:04.842Z,24.80
2017-08-15T11:32:33.082Z,24.80
2017-08-15T11:35:01.411Z,24.80
2017-08-15T11:37:30.378Z,24.90
2017-08-15T11:39:59.386Z,24.90
2017-08-15T11:42:27.634Z,24.90
2017-08-15T11:44:56.646Z,24.80
2017-08-15T11:47:24.919Z,24.70
2017-08-15T11:49:53.926Z,24.70
2017-08-15T11:52:22.171Z,24.70
2017-08-15T11:54:51.231Z,25.20
2017-08-15T11:57:19.490Z,25.20
2017-08-15T11:59:47.773Z,25.50
2017-08-15T12:02:15.998Z,25.90
2017-08-15T12:04:45.062Z,26.30
2017-08-15T12:07:13.834Z,26.30
2017-08-15T12:09:42.904Z,26.70
2017-08-15T12:12:11.179Z,26.70
2017-08-15T12:14:39.454Z,26.90
2017-08-15T12:17:08.483Z,26.80
2017-08-15T12:19:36.977Z,26.80
2017-08-15T12:22:05.268Z,26.80
2017-08-15T12:24:33.563Z,26.80
2017-08-15T12:27:01.803Z,26.90
2017-08-15T12:29:30.071Z,26.90
2017-08-15T12:31:58.322Z,26.90
2017-08-15T12:34:26.586Z,26.80
2017-08-15T12:36:55.615Z,26.90
2017-08-15T12:39:23.912Z,26.90
2017-08-15T12:41:52.198Z,26.90
2017-08-15T12:44:20.451Z,26.90
2017-08-15T12:46:48.748Z,27.00
2017-08-15T12:49:17.900Z,27.10
2017-08-15T12:51:46.165Z,27.10
2017-08-15T12:54:15.176Z,27.30
2017-08-15T12:56:43.418Z,27.30
2017-08-15T12:59:11.696Z,27.30
2017-08-15T13:01:39.943Z,27.30
2017-08-15T13:04:08.318Z,27.10
2017-08-15T13:06:36.557Z,27.10
2017-08-15T13:09:04.806Z,27.00
2017-08-15T13:11:33.874Z,27.10
2017-08-15T13:14:02.113Z,27.10
2017-08-15T13:16:30.917Z,27.30
2017-08-15T13:18:59.198Z,27.40
2017-08-15T13:21:27.475Z,27.50
2017-08-15T13:23:56.454Z,27.60
2017-08-15T13:26:24.706Z,27.60
2017-08-15T13:28:53.740Z,28.10
2017-08-15T13:31:22.506Z,28.00
2017-08-15T13:33:51.019Z,27.90
2017-08-15T13:36:19.258Z,28.00
2017-08-15T13:38:48.291Z,28.30
2017-08-15T13:41:16.515Z,28.30
2017-08-15T13:43:45.543Z,27.90
2017-08-15T13:46:13.809Z,27.90
2017-08-15T13:48:42.070Z,27.90
2017-08-15T13:51:11.110Z,28.00
2017-08-15T13:53:39.383Z,27.90
2017-08-15T13:56:07.616Z,28.00
2017-08-15T13:58:36.755Z,28.00
2017-08-15T14:01:04.985Z,28.00
2017-08-15T14:03:33.260Z,27.80
2017-08-15T14:06:02.302Z,27.30
2017-08-15T14:08:31.198Z,27.30
2017-08-15T14:10:59.443Z,27.20
2017-08-15T14:13:27.721Z,26.90
2017-08-15T14:15:56.762Z,26.50
2017-08-15T14:18:25.050Z,26.50
2017-08-15T14:20:53.474Z,26.40
2017-08-15T14:23:22.464Z,26.10
2017-08-15T14:25:50.746Z,26.00
2017-08-15T14:28:19.014Z,26.00
2017-08-15T14:30:47.283Z,25.90
2017-08-15T14:33:16.355Z,25.90
2017-08-15T14:35:44.667Z,26.00
2017-08-15T14:38:13.694Z,25.90
2017-08-15T14:40:42.013Z,25.90
2017-08-15T14:43:10.270Z,25.80
2017-08-15T14:45:38.628Z,25.80
2017-08-15T14:48:07.758Z,25.80
2017-08-15T14:50:36.004Z,25.70
2017-08-15T14:53:04.293Z,25.40
2017-08-15T14:55:32.535Z,25.20
2017-08-15T14:58:01.575Z,25.10
2017-08-15T15:00:29.819Z,25.10
2017-08-15T15:02:58.131Z,25.10
2017-08-15T15:05:26.414Z,25.10
2017-08-15T15:07:54.656Z,25.10
2017-08-15T15:10:22.950Z,25.10
2017-08-15T15:12:51.189Z,25.10
2017-08-15T15:15:19.455Z,25.10
2017-08-15T15:17:48.483Z,25.00
2017-08-15T15:20:16.723Z,25.00
2017-08-15T15:22:45.122Z,25.00
2017-08-15T15:25:14.106Z,25.20
2017-08-15T15:27:43.156Z,25.30
2017-08-15T15:30:11.689Z,25.30
2017-08-15T15:32:39.936Z,25.50
2017-08-15T15:35:09.239Z,25.60
2017-08-15T15:37:37.507Z,25.60
2017-08-15T15:40:06.711Z,25.60
2017-08-15T15:42:34.950Z,25.70
2017-08-15T15:45:04.197Z,25.40
2017-08-15T15:47:32.492Z,25.10
2017-08-15T15:50:01.530Z,25.00
2017-08-15T15:52:29.787Z,25.00
2017-08-15T15:54:58.058Z,25.00
2017-08-15T15:57:26.311Z,25.10
2017-08-15T15:59:55.450Z,24.80
2017-08-15T16:02:24.464Z,24.80
2017-08-15T16:04:52.775Z,24.80
2017-08-15T16:07:21.053Z,24.70
2017-08-15T16:09:49.306Z,24.50
2017-08-15T16:12:17.560Z,24.50
2017-08-15T16:14:45.830Z,24.50
2017-08-15T16:17:14.081Z,24.60
2017-08-15T16:19:42.398Z,24.60
2017-08-15T16:22:10.867Z,24.50
2017-08-15T16:24:39.122Z,24.50
2017-08-15T16:27:08.295Z,24.50
2017-08-15T16:29:36.564Z,24.40
2017-08-15T16:32:04.836Z,24.40
2017-08-15T16:34:33.106Z,24.40
2017-08-15T16:37:02.397Z,24.40
2017-08-15T16:39:30.641Z,24.30
2017-08-15T16:41:58.934Z,24.30
2017-08-15T16:44:27.187Z,24.20
2017-08-15T16:46:55.433Z,24.20
2017-08-15T16:49:23.706Z,24.20
2017-08-15T16:51:51.983Z,24.20
2017-08-15T16:54:21.061Z,24.10
2017-08-15T16:56:49.325Z,24.10
2017-08-15T16:59:17.640Z,24.00
2017-08-15T17:01:45.968Z,23.90
2017-08-15T17:04:14.225Z,23.90
2017-08-15T17:06:43.210Z,23.80
2017-08-15T17:09:12.844Z,23.90
2017-08-15T17:11:41.117Z,23.80
2017-08-15T17:14:09.412Z,23.90
2017-08-15T17:16:37.645Z,23.80
2017-08-15T17:19:07.085Z,23.80
2017-08-15T17:21:35.359Z,23.80
2017-08-15T17:24:03.643Z,23.80
2017-08-15T17:26:31.874Z,23.80
2017-08-15T17:29:00.145Z,23.80
2017-08-15T17:31:28.419Z,23.80
2017-08-15T17:33:56.673Z,23.70
2017-08-15T17:36:25.023Z,23.70
2017-08-15T17:38:54.051Z,23.40
2017-08-15T17:41:22.294Z,23.40
2017-08-15T17:43:51.290Z,23.30
2017-08-15T17:46:19.558Z,23.20
2017-08-15T17:48:49.656Z,23.00
2017-08-15T17:51:18.739Z,22.90
2017-08-15T17:53:47.069Z,22.90
2017-08-15T17:56:15.313Z,22.90
2017-08-15T17:58:43.652Z,22.80
2017-08-15T18:01:11.959Z,22.90
2017-08-15T18:03:40.994Z,22.80
2017-08-15T18:06:09.301Z,22.80
2017-08-15T18:08:37.546Z,22.70
2017-08-15T18:11:05.830Z,22.50
2017-08-15T18:13:34.069Z,22.50
2017-08-15T18:16:03.126Z,22.60
2017-08-15T18:18:32.222Z,22.70
2017-08-15T18:21:00.502Z,22.70
2017-08-15T18:23:28.814Z,22.70
2017-08-15T18:25:57.856Z,22.60
2017-08-15T18:28:26.129Z,22.60
2017-08-15T18:30:54.421Z,22.50
2017-08-15T18:33:22.734Z,22.30
2017-08-15T18:35:51.266Z,22.20
2017-08-15T18:38:19.946Z,22.10
2017-08-15T18:40:48.196Z,21.90
2017-08-15T18:43:16.509Z,21.80
2017-08-15T18:45:44.815Z,21.70
2017-08-15T18:48:13.061Z,21.60
2017-08-15T18:50:41.357Z,21.60
2017-08-15T18:53:09.672Z,21.60
2017-08-15T18:55:38.722Z,21.50
2017-08-15T18:58:06.998Z,21.50
2017-08-15T19:00:35.320Z,21.30
2017-08-15T19:03:04.390Z,21.10
2017-08-15T19:05:32.639Z,21.10
2017-08-15T19:08:00.971Z,21.10
2017-08-15T19:10:30.850Z,21.10
2017-08-15T19:12:59.435Z,21.10
2017-08-15T19:15:27.703Z,21.20
2017-08-15T19:17:56.285Z,21.30
2017-08-15T19:20:24.851Z,21.20
2017-08-15T19:22:53.836Z,21.10
2017-08-15T19:25:25.525Z,21.00
2017-08-15T19:27:55.427Z,21.00
2017-08-15T19:30:23.765Z,20.90
2017-08-15T19:32:52.098Z,20.80
2017-08-15T19:35:21.236Z,20.90
2017-08-15T19:37:49.585Z,20.70
2017-08-15T19:40:18.016Z,20.50
2017-08-15T19:42:47.837Z,20.50
2017-08-15T19:45:16.222Z,20.50
2017-08-15T19:47:45.502Z,20.50
2017-08-15T19:50:14.738Z,20.40
2017-08-15T19:52:43.068Z,20.30
2017-08-15T19:55:12.901Z,20.40
2017-08-15T19:57:42.249Z,20.50
2017-08-15T20:00:11.508Z,20.50
2017-08-15T20:02:40.627Z,20.50
2017-08-15T20:05:08.907Z,20.50
2017-08-15T20:07:37.214Z,20.50
2017-08-15T20:10:05.553Z,20.40
2017-08-15T20:12:33.823Z,20.20
2017-08-15T20:15:02.085Z,20.10
2017-08-15T20:17:30.393Z,20.00
2017-08-15T20:19:58.675Z,20.10
2017-08-15T20:22:27.300Z,20.10
2017-08-15T20:24:55.578Z,20.10
2017-08-15T20:27:23.891Z,20.00
2017-08-15T20:29:52.176Z,20.10
2017-08-15T20:32:20.461Z,20.00
2017-08-15T20:34:48.759Z,20.00
2017-08-15T20:37:17.070Z,19.90
2017-08-15T20:39:45.363Z,19.90
2017-08-15T20:42:14.442Z,20.00
2017-08-15T20:44:43.152Z,20.00
2017-08-15T20:47:12.208Z,20.00
2017-08-15T20:49:41.304Z,20.00
2017-08-15T20:52:09.612Z,19.90
2017-08-15T20:54:38.750Z,20.00
2017-08-15T20:57:07.208Z,20.00
2017-08-15T20:59:36.377Z,20.00
2017-08-15T21:02:04.686Z,20.00
2017-08-15T21:04:33.089Z,20.00
2017-08-15T21:07:01.341Z,20.10
2017-08-15T21:09:29.597Z,20.20
2017-08-15T21:11:58.736Z,20.30
2017-08-15T21:14:27.027Z,20.20
2017-08-15T21:16:56.114Z,20.40
2017-08-15T21:19:25.265Z,20.40
2017-08-15T21:21:54.298Z,20.40
2017-08-15T21:24:22.894Z,20.40
2017-08-15T21:26:52.565Z,20.40
2017-08-15T21:29:21.581Z,20.60
2017-08-15T21:31:52.419Z,20.60
2017-08-15T21:34:20.699Z,20.60
2017-08-15T21:36:49.051Z,20.60
2017-08-15T21:39:18.116Z,20.50
2017-08-15T21:41:46.533Z,20.50
2017-08-15T21:44:15.598Z,20.60
2017-08-15T21:46:43.870Z,20.60
2017-08-15T21:49:12.134Z,20.60
2017-08-15T21:51:41.158Z,20.60
2017-08-15T21:54:09.454Z,20.60
2017-08-15T21:56:37.790Z,20.70
2017-08-15T21:59:06.512Z,20.70
2017-08-15T22:01:40.463Z,20.60
2017-08-15T22:04:08.701Z,20.60
2017-08-15T22:06:37.223Z,20.60
2017-08-15T22:09:06.340Z,20.70
2017-08-15T22:11:35.172Z,20.80
2017-08-15T22:14:04.857Z,20.70
2017-08-15T22:16:33.147Z,20.60
2017-08-15T22:19:01.974Z,20.60
2017-08-15T22:21:30.256Z,20.50
2017-08-15T22:23:58.526Z,20.50
2017-08-15T22:26:26.791Z,20.60
2017-08-15T22:28:55.155Z,20.60
2017-08-15T22:31:24.182Z,20.40
2017-08-15T22:33:52.484Z,20.40
2017-08-15T22:36:20.759Z,20.30
2017-08-15T22:38:49.134Z,20.20
2017-08-15T22:41:17.423Z,20.20
2017-08-15T22:43:45.690Z,20.20
2017-08-15T22:46:13.964Z,20.30
2017-08-15T22:48:42.254Z,20.10
2017-08-15T22:51:10.524Z,20.30
2017-08-15T22:53:38.934Z,20.40
2017-08-15T22:56:07.184Z,20.40
2017-08-15T22:58:35.456Z,20.40
2017-08-15T23:01:03.953Z,20.40
2017-08-15T23:03:32.525Z,20.40
2017-08-15T23:06:00.775Z,20.40
2017-08-15T23:08:29.033Z,20.40
2017-08-15T23:10:58.077Z,20.40
2017-08-15T23:13:26.359Z,20.40
2017-08-15T23:15:54.610Z,20.30
2017-08-15T23:18:22.867Z,20.30
2017-08-15T23:20:51.234Z,20.20
2017-08-15T23:23:20.246Z,20.00
2017-08-15T23:25:48.508Z,19.90
2017-08-15T23:28:17.522Z,19.90
2017-08-15T23:30:45.817Z,19.90
2017-08-15T23:33:14.082Z,19.90
2017-08-15T23:35:42.327Z,20.00
2017-08-15T23:38:10.597Z,19.90
2017-08-15T23:40:39.311Z,19.90
2017-08-15T23:43:08.341Z,20.00
2017-08-15T23:45:36.608Z,19.90
2017-08-15T23:48:04.864Z,20.00
2017-08-15T23:50:33.128Z,20.00
2017-08-15T23:53:02.128Z,20.10
2017-08-15T23:55:30.390Z,20.10
2017-08-15T23:57:58.682Z,20.10
